TimeCDT,TemperatureF,Dew PointF,Humidity,Sea Level PressureIn,VisibilityMPH,Wind Direction,Wind SpeedMPH,Gust SpeedMPH,PrecipitationIn,Events,Conditions,WindDirDegrees,DateUTC
12:12 AM,64.4,62.6,94,29.83,10.0,WNW,6.9,-,N/A,,Clear,300,2013-08-07 05:12:00
12:33 AM,62.6,62.6,100,29.84,10.0,NW,5.8,-,N/A,,Clear,310,2013-08-07 05:33:00
12:53 AM,62.6,62.6,100,29.85,10.0,NW,8.1,-,N/A,,Clear,310,2013-08-07 05:53:00
1:12 AM,62.6,62.6,100,29.85,10.0,NW,8.1,-,N/A,,Scattered Clouds,320,2013-08-07 06:12:00
1:33 AM,62.6,62.6,100,29.85,10.0,NW,6.9,-,N/A,,Clear,310,2013-08-07 06:33:00
1:53 AM,62.6,62.6,100,29.86,10.0,NW,4.6,-,N/A,,Clear,310,2013-08-07 06:53:00
2:12 AM,62.6,62.6,100,29.86,10.0,NW,4.6,-,N/A,,Clear,310,2013-08-07 07:12:00
2:33 AM,62.6,62.6,100,29.86,10.0,NW,5.8,-,N/A,,Clear,320,2013-08-07 07:33:00
2:53 AM,62.6,62.6,100,29.87,10.0,NW,4.6,-,N/A,,Clear,310,2013-08-07 07:53:00
3:13 AM,62.6,62.6,100,29.87,10.0,NW,6.9,-,N/A,,Scattered Clouds,320,2013-08-07 08:13:00
3:32 AM,62.6,62.6,100,29.87,10.0,NW,5.8,-,N/A,,Clear,320,2013-08-07 08:32:00
3:53 AM,60.8,60.8,100,29.88,10.0,NNW,6.9,-,N/A,,Clear,330,2013-08-07 08:53:00
4:13 AM,60.8,60.8,100,29.88,10.0,NNW,6.9,-,N/A,,Scattered Clouds,330,2013-08-07 09:13:00
4:32 AM,60.8,60.8,100,29.89,10.0,NNW,8.1,-,N/A,,Clear,340,2013-08-07 09:32:00
4:53 AM,60.8,60.8,100,29.89,10.0,NNW,6.9,-,N/A,,Clear,340,2013-08-07 09:53:00
5:13 AM,60.8,60.8,100,29.90,10.0,NNW,6.9,-,N/A,,Clear,330,2013-08-07 10:13:00
5:32 AM,60.8,60.8,100,29.90,10.0,NNW,9.2,-,N/A,,Mostly Cloudy,340,2013-08-07 10:32:00
5:53 AM,60.8,60.8,100,29.90,10.0,NNW,8.1,-,N/A,,Scattered Clouds,340,2013-08-07 10:53:00
6:13 AM,59.0,59.0,100,29.92,10.0,NNW,8.1,-,N/A,,Clear,330,2013-08-07 11:13:00
6:32 AM,59.0,57.2,94,29.92,10.0,NNW,6.9,-,N/A,,Clear,340,2013-08-07 11:32:00
6:53 AM,59.0,59.0,100,29.93,10.0,North,8.1,-,N/A,,Clear,350,2013-08-07 11:53:00
7:13 AM,59.0,59.0,100,29.94,10.0,NNW,8.1,-,N/A,,Clear,340,2013-08-07 12:13:00
7:32 AM,60.8,59.0,94,29.95,10.0,North,8.1,-,N/A,,Clear,350,2013-08-07 12:32:00
7:53 AM,60.8,59.0,94,29.95,10.0,North,6.9,-,N/A,,Clear,350,2013-08-07 12:53:00
8:13 AM,60.8,59.0,94,29.96,10.0,North,8.1,-,N/A,,Clear,350,2013-08-07 13:13:00
8:32 AM,60.8,59.0,94,29.97,10.0,North,8.1,-,N/A,,Clear,350,2013-08-07 13:32:00
8:53 AM,62.6,57.2,82,29.98,10.0,North,8.1,-,N/A,,Clear,350,2013-08-07 13:53:00
9:13 AM,62.6,57.2,82,29.98,10.0,North,9.2,-,N/A,,Clear,10,2013-08-07 14:13:00
9:32 AM,64.4,57.2,77,29.99,10.0,North,5.8,-,N/A,,Clear,10,2013-08-07 14:32:00
9:53 AM,64.4,55.4,73,29.99,10.0,North,6.9,-,N/A,,Clear,360,2013-08-07 14:53:00
10:13 AM,64.4,53.6,68,30.00,10.0,North,9.2,16.1,N/A,,Scattered Clouds,10,2013-08-07 15:13:00
10:32 AM,66.2,53.6,64,30.00,10.0,NNE,8.1,-,N/A,,Clear,20,2013-08-07 15:32:00
10:53 AM,66.2,53.6,64,30.01,10.0,NE,9.2,-,N/A,,Clear,40,2013-08-07 15:53:00
11:13 AM,68.0,53.6,60,30.01,10.0,North,9.2,-,N/A,,Clear,360,2013-08-07 16:13:00
11:32 AM,68.0,51.8,56,30.02,10.0,North,10.4,-,N/A,,Clear,360,2013-08-07 16:32:00
11:53 AM,69.8,51.8,53,30.02,10.0,North,8.1,-,N/A,,Clear,350,2013-08-07 16:53:00
12:12 PM,69.8,51.8,53,30.03,10.0,North,8.1,-,N/A,,Clear,350,2013-08-07 17:12:00
12:33 PM,69.8,51.8,53,30.03,10.0,North,4.6,-,N/A,,Clear,10,2013-08-07 17:33:00
12:53 PM,69.8,50.0,49,30.02,10.0,North,6.9,-,N/A,,Clear,10,2013-08-07 17:53:00
1:12 PM,69.8,51.8,53,30.02,10.0,Calm,Calm,-,N/A,,Clear,0,2013-08-07 18:12:00
1:33 PM,71.6,48.2,43,30.02,10.0,North,8.1,-,N/A,,Clear,10,2013-08-07 18:33:00
1:52 PM,71.6,50.0,46,30.02,10.0,NE,4.6,-,N/A,,Clear,50,2013-08-07 18:52:00
2:13 PM,71.6,51.8,50,30.02,10.0,NE,6.9,-,N/A,,Clear,40,2013-08-07 19:13:00
2:32 PM,71.6,50.0,46,30.02,10.0,NW,6.9,-,N/A,,Clear,310,2013-08-07 19:32:00
2:53 PM,71.6,51.8,50,30.02,10.0,NNE,4.6,-,N/A,,Clear,20,2013-08-07 19:53:00
3:13 PM,73.4,51.8,47,30.02,10.0,Calm,Calm,-,N/A,,Clear,0,2013-08-07 20:13:00
3:32 PM,73.4,53.6,50,30.01,10.0,NNE,6.9,-,N/A,,Clear,20,2013-08-07 20:32:00
3:53 PM,73.4,53.6,50,30.01,10.0,NW,5.8,-,N/A,,Clear,320,2013-08-07 20:53:00
4:12 PM,73.4,50.0,44,30.01,10.0,North,6.9,-,N/A,,Clear,350,2013-08-07 21:12:00
4:33 PM,73.4,51.8,47,30.01,10.0,NNW,8.1,-,N/A,,Clear,340,2013-08-07 21:33:00
4:53 PM,73.4,50.0,44,30.01,10.0,NNE,5.8,-,N/A,,Clear,30,2013-08-07 21:53:00
5:12 PM,73.4,51.8,47,30.01,10.0,NNE,4.6,-,N/A,,Clear,20,2013-08-07 22:12:00
5:33 PM,73.4,51.8,47,30.01,10.0,NNW,4.6,-,N/A,,Clear,340,2013-08-07 22:33:00
5:53 PM,73.4,51.8,47,30.01,10.0,North,4.6,-,N/A,,Clear,360,2013-08-07 22:53:00
6:13 PM,73.4,51.8,47,30.01,10.0,NNE,6.9,-,N/A,,Clear,20,2013-08-07 23:13:00
6:32 PM,73.4,51.8,47,30.00,10.0,North,4.6,-,N/A,,Clear,360,2013-08-07 23:32:00
6:51 PM,73.4,50.0,44,30.01,10.0,Calm,Calm,-,N/A,,Clear,0,2013-08-07 23:51:00
7:12 PM,71.6,51.8,50,30.01,10.0,Calm,Calm,-,N/A,,Clear,0,2013-08-08 00:12:00
7:33 PM,71.6,50.0,46,30.01,10.0,Calm,Calm,-,N/A,,Clear,0,2013-08-08 00:33:00
7:53 PM,71.6,53.6,53,30.01,10.0,North,3.5,-,N/A,,Clear,350,2013-08-08 00:53:00
8:12 PM,69.8,53.6,56,30.01,10.0,Calm,Calm,-,N/A,,Clear,0,2013-08-08 01:12:00
8:33 PM,66.2,53.6,64,30.02,10.0,Calm,Calm,-,N/A,,Clear,0,2013-08-08 01:33:00
8:52 PM,64.4,55.4,73,30.03,10.0,Calm,Calm,-,N/A,,Clear,0,2013-08-08 01:52:00
9:13 PM,62.6,57.2,82,30.03,10.0,Calm,Calm,-,N/A,,Clear,0,2013-08-08 02:13:00
9:33 PM,62.6,57.2,82,30.04,10.0,Calm,Calm,-,N/A,,Unknown,0,2013-08-08 02:33:00
9:52 PM,60.8,57.2,88,30.04,10.0,Calm,Calm,-,N/A,,Unknown,0,2013-08-08 02:52:00
10:13 PM,60.8,57.2,88,30.04,10.0,Calm,Calm,-,N/A,,Unknown,0,2013-08-08 03:13:00
10:33 PM,60.8,57.2,88,30.04,10.0,Calm,Calm,-,N/A,,Clear,0,2013-08-08 03:33:00
10:52 PM,60.8,57.2,88,30.04,10.0,Calm,Calm,-,N/A,,Unknown,0,2013-08-08 03:52:00
11:13 PM,60.8,55.4,82,30.04,10.0,Calm,Calm,-,N/A,,Unknown,0,2013-08-08 04:13:00
11:33 PM,60.8,55.4,82,30.04,10.0,Calm,Calm,-,N/A,,Scattered Clouds,0,2013-08-08 04:33:00
11:52 PM,60.8,55.4,82,30.04,10.0,Calm,Calm,-,N/A,,Unknown,0,2013-08-08 04:52:00